Time;durP1;ratioP1;P1;durP2;ratioP2;P2;SDS_P1;SDS_P2;PMS_P1;PMS_P2;Temp;Humidity;BMP_temperature;BMP_pressure;BME280_temperature;BME280_humidity;BME280_pressure;Samples;Min_cycle;Max_cycle;Signal;HPM_P1;HPM_P2
2022/12/26 00:01:36;;;;;;;;;;;;;;;7.72;98.35;99885.91;4889251;29;20027;-85
2022/12/26 00:04:03;;;;;;;;;;;;;;;7.70;98.67;99893.94;4887831;29;19930;-86
2022/12/26 00:06:30;;;;;;;;;;;;;;;7.65;97.72;99900.53;4903017;29;19990;-86
2022/12/26 00:08:57;;;;;;;;;;;;;;;7.58;97.36;99908.06;4900604;29;20405;-86
2022/12/26 00:11:24;;;;;;;;;;;;;;;7.61;96.75;99913.16;4889435;29;20374;-86
2022/12/26 00:13:58;;;;;;;;;;;;;;;7.60;96.13;99906.16;4901383;29;19923;-86
2022/12/26 00:16:25;;;;;;;;;;;;;;;7.61;96.23;99924.56;4889376;29;19927;-87
2022/12/26 00:18:51;;;;;;;;;;;;;;;7.59;96.64;99913.25;4916845;29;19927;-86
2022/12/26 00:21:18;;;;;;;;;;;;;;;7.61;96.73;99905.22;4904800;29;19946;-86
2022/12/26 00:23:45;;;;;;;;;;;;;;;7.60;96.36;99904.38;4888343;29;19927;-86
2022/12/26 00:26:16;;;;;;;;;;;;;;;7.59;96.19;99901.84;4889261;29;20018;-87
2022/12/26 00:28:42;;;;;;;;;;;;;;;7.57;96.51;99893.19;4899698;29;20574;-85
2022/12/26 00:31:11;;;;;;;;;;;;;;;7.59;96.67;99891.28;4902285;29;20475;-85
2022/12/26 00:33:37;;;;;;;;;;;;;;;7.63;97.02;99883.97;4888686;29;19931;-86
2022/12/26 00:36:06;;;;;;;;;;;;;;;7.62;96.99;99885.75;4870951;29;20556;-86
2022/12/26 00:38:33;;;;;;;;;;;;;;;7.62;97.58;99893.69;4855194;29;19970;-86
2022/12/26 00:41:00;;;;;;;;;;;;;;;7.60;98.03;99893.78;4888698;29;19931;-86
2022/12/26 00:43:27;;;;;;;;;;;;;;;7.56;97.62;99889.72;4872134;29;20009;-86
2022/12/26 00:45:53;;;;;;;;;;;;;;;7.54;97.10;99893.44;4901214;29;19931;-87
2022/12/26 00:48:20;;;;;;;;;;;;;;;7.57;96.90;99894.03;4901655;29;19927;-86
2022/12/26 00:50:46;;;;;;;;;;;;;;;7.53;96.50;99889.94;4918864;29;19923;-86
2022/12/26 00:53:13;;;;;;;;;;;;;;;7.50;96.31;99884.88;4903088;29;20009;-85
2022/12/26 00:55:39;;;;;;;;;;;;;;;7.59;96.89;99878.91;4891937;29;19930;-86
2022/12/26 00:58:06;;;;;;;;;;;;;;;7.63;97.73;99873.38;4886511;29;20620;-86
2022/12/26 01:00:32;;;;;;;;;;;;;;;7.65;98.88;99880.25;4904328;29;20383;-85
2022/12/26 01:02:59;;;;;;;;;;;;;;;7.67;99.20;99875.69;4901050;29;19967;-86
2022/12/26 01:05:26;;;;;;;;;;;;;;;7.75;99.68;99883.03;4872393;29;20331;-86
2022/12/26 01:07:52;;;;;;;;;;;;;;;7.81;99.33;99886.06;4887904;29;19927;-85
2022/12/26 01:10:40;;;;;;;;;;;;;;;7.84;99.25;99879.69;4862022;29;19982;-86
2022/12/26 01:13:08;;;;;;;;;;;;;;;7.78;98.94;99885.44;4902732;29;19923;-86
2022/12/26 01:15:34;;;;;;;;;;;;;;;7.67;98.10;99888.06;4888290;29;19970;-85
2022/12/26 01:18:01;;;;;;;;;;;;;;;7.71;98.20;99897.44;4902956;29;19931;-85
2022/12/26 01:20:27;;;;;;;;;;;;;;;7.68;97.88;99901.16;4916060;29;19930;-87
2022/12/26 01:22:54;;;;;;;;;;;;;;;7.60;97.96;99904.38;4891904;29;19927;-86
2022/12/26 01:25:21;;;;;;;;;;;;;;;7.61;98.02;99892.84;4903680;29;19975;-86
2022/12/26 01:27:48;;;;;;;;;;;;;;;7.56;98.80;99896.81;4892291;29;19923;-85
2022/12/26 01:30:14;;;;;;;;;;;;;;;7.55;98.84;99897.75;4903891;29;19927;-86
2022/12/26 01:32:41;;;;;;;;;;;;;;;7.56;99.06;99900.28;4902234;29;19951;-85
2022/12/26 01:35:08;;;;;;;;;;;;;;;7.57;98.22;99894.03;4874789;29;19935;-86
2022/12/26 01:37:35;;;;;;;;;;;;;;;7.56;98.38;99894.16;4903343;29;19930;-86
2022/12/26 01:40:01;;;;;;;;;;;;;;;7.64;97.65;99886.50;4900463;29;19923;-86
2022/12/26 01:42:34;;;;;;;;;;;;;;;7.56;98.31;99891.53;4887318;29;19963;-86
2022/12/26 01:45:06;;;;;;;;;;;;;;;7.58;98.23;99900.16;4884013;29;20267;-85
2022/12/26 01:47:32;;;;;;;;;;;;;;;7.45;98.64;99894.09;4901525;29;19923;-86
2022/12/26 01:49:59;;;;;;;;;;;;;;;7.54;98.50;99893.44;4901349;29;19970;-86
2022/12/26 01:52:30;;;;;;;;;;;;;;;7.70;98.39;99893.13;4902103;29;20785;-86
2022/12/26 01:54:56;;;;;;;;;;;;;;;7.68;98.57;99895.03;4885289;29;20387;-86
2022/12/26 01:57:27;;;;;;;;;;;;;;;7.73;99.18;99891.06;4886851;29;19954;-86
2022/12/26 01:59:53;;;;;;;;;;;;;;;7.70;98.04;99890.47;4886367;29;20371;-85
2022/12/26 02:02:20;;;;;;;;;;;;;;;7.67;98.46;99899.47;4902490;29;19931;-85
2022/12/26 02:07:34;;;;;;;;;;;;;;;7.74;99.24;99898.06;4869951;29;19923;-86
2022/12/26 02:10:00;;;;;;;;;;;;;;;7.79;99.95;99897.72;4866929;29;19984;-84
2022/12/26 02:12:27;;;;;;;;;;;;;;;7.94;99.84;99887.78;4889510;29;20335;-86
2022/12/26 02:15:04;;;;;;;;;;;;;;;7.91;100.00;99883.56;4880383;29;19923;-86
2022/12/26 02:17:31;;;;;;;;;;;;;;;7.95;100.00;99889.44;4886021;29;19930;-86
2022/12/26 02:20:16;;;;;;;;;;;;;;;8.00;99.93;99900.50;4899081;29;19923;-86
2022/12/26 02:22:51;;;;;;;;;;;;;;;7.94;100.00;99906.28;4894350;29;19923;-86
2022/12/26 02:25:26;;;;;;;;;;;;;;;7.93;100.00;99897.47;4901867;29;19935;-86
2022/12/26 02:28:11;;;;;;;;;;;;;;;7.94;100.00;99890.41;4869027;29;20918;-86
2022/12/26 02:30:40;;;;;;;;;;;;;;;7.87;100.00;99905.91;4887425;29;19923;-86
2022/12/26 02:33:19;;;;;;;;;;;;;;;7.88;100.00;99894.34;4903842;29;19959;-86
2022/12/26 02:36:15;;;;;;;;;;;;;;;7.88;100.00;99886.41;4872391;29;19924;-86
2022/12/26 02:38:48;;;;;;;;;;;;;;;7.82;100.00;99900.13;4863198;29;19923;-86
2022/12/26 02:41:25;;;;;;;;;;;;;;;7.77;100.00;99907.56;4873084;29;19927;-86
2022/12/26 02:43:51;;;;;;;;;;;;;;;7.80;99.27;99904.66;4867122;29;19924;-86
2022/12/26 02:49:20;;;;;;;;;;;;;;;7.76;98.74;99913.78;4820447;29;19931;-86
2022/12/26 03:14:32;;;;;;;;;;;;;;;7.59;99.73;99893.94;4846191;29;19937;-86
2022/12/26 03:17:18;;;;;;;;;;;;;;;7.59;99.73;99902.69;4889302;29;21137;-86
2022/12/26 03:19:58;;;;;;;;;;;;;;;7.62;99.33;99896.34;4884406;29;20001;-86
2022/12/26 03:22:51;;;;;;;;;;;;;;;7.65;99.43;99898.75;4864262;29;19922;-86
2022/12/26 03:28:06;;;;;;;;;;;;;;;7.65;99.13;99901.38;4888666;29;20406;-86
2022/12/26 03:30:47;;;;;;;;;;;;;;;7.68;99.09;99905.59;4889414;29;20385;-86
2022/12/26 03:36:17;;;;;;;;;;;;;;;7.64;99.50;99909.44;4859561;29;19931;-86
2022/12/26 03:39:06;;;;;;;;;;;;;;;7.58;99.67;99908.94;4890877;29;19934;-86
2022/12/26 04:46:30;;;;;;;;;;;;;;;7.61;100.00;99902.59;4886134;29;19930;-85
2022/12/26 04:51:42;;;;;;;;;;;;;;;7.57;100.00;99901.13;4874914;29;20029;-85
2022/12/26 04:54:08;;;;;;;;;;;;;;;7.64;100.00;99898.88;4902922;29;20491;-85
2022/12/26 04:56:36;;;;;;;;;;;;;;;7.56;100.00;99897.63;4901449;29;20267;-85
2022/12/26 04:59:02;;;;;;;;;;;;;;;7.61;100.00;99895.50;4862564;29;20310;-86
2022/12/26 05:09:47;;;;;;;;;;;;;;;7.66;100.00;99908.38;4844641;29;20899;-86
2022/12/26 05:12:13;;;;;;;;;;;;;;;7.60;100.00;99911.47;4875011;29;19941;-86
2022/12/26 05:14:40;;;;;;;;;;;;;;;7.62;100.00;99917.47;4885048;29;19942;-86
2022/12/26 05:31:01;;;;;;;;;;;;;;;7.70;100.00;99930.13;4827195;29;19947;-85
2022/12/26 05:36:13;;;;;;;;;;;;;;;7.70;100.00;99930.94;4842946;29;20395;-85
2022/12/26 05:38:40;;;;;;;;;;;;;;;7.70;100.00;99925.66;4868571;29;19935;-86
2022/12/26 05:41:07;;;;;;;;;;;;;;;7.64;100.00;99923.50;4857066;29;19939;-85
2022/12/26 05:43:33;;;;;;;;;;;;;;;7.67;100.00;99927.72;4854135;29;19945;-85
2022/12/26 05:46:00;;;;;;;;;;;;;;;7.66;100.00;99912.78;4866995;29;20348;-85
2022/12/26 05:48:26;;;;;;;;;;;;;;;7.69;100.00;99916.06;4865795;29;19932;-86
2022/12/26 05:50:57;;;;;;;;;;;;;;;7.65;100.00;99905.84;4839958;29;19924;-86
2022/12/26 05:53:23;;;;;;;;;;;;;;;7.63;100.00;99913.03;4868085;29;19971;-85
2022/12/26 05:55:50;;;;;;;;;;;;;;;7.64;100.00;99915.56;4868061;29;19938;-86
2022/12/26 05:58:16;;;;;;;;;;;;;;;7.63;100.00;99920.97;4864460;29;19927;-86
2022/12/26 06:00:43;;;;;;;;;;;;;;;7.71;100.00;99919.44;4873777;29;20041;-85
2022/12/26 06:03:09;;;;;;;;;;;;;;;7.73;100.00;99920.13;4916039;29;20315;-87
2022/12/26 06:05:36;;;;;;;;;;;;;;;7.76;100.00;99927.00;4887790;29;19931;-85
2022/12/26 06:08:02;;;;;;;;;;;;;;;7.74;100.00;99928.94;4883648;29;20612;-86
2022/12/26 06:10:29;;;;;;;;;;;;;;;7.77;100.00;99926.91;4882679;29;19927;-85
2022/12/26 06:12:55;;;;;;;;;;;;;;;7.83;100.00;99934.34;4886906;29;19938;-86
2022/12/26 06:15:22;;;;;;;;;;;;;;;7.85;100.00;99928.13;4900170;29;19998;-86
2022/12/26 06:17:48;;;;;;;;;;;;;;;7.83;100.00;99929.06;4901256;29;20010;-86
2022/12/26 06:20:16;;;;;;;;;;;;;;;7.76;100.00;99932.28;4882849;29;20347;-86
2022/12/26 06:22:43;;;;;;;;;;;;;;;7.74;100.00;99931.59;4886887;29;20021;-85
2022/12/26 06:25:09;;;;;;;;;;;;;;;7.73;100.00;99925.44;4884811;29;19923;-85
2022/12/26 06:27:36;;;;;;;;;;;;;;;7.75;100.00;99915.59;4884488;29;19926;-86
2022/12/26 06:30:03;;;;;;;;;;;;;;;7.70;100.00;99911.63;4903491;29;20334;-86
2022/12/26 06:32:29;;;;;;;;;;;;;;;7.73;100.00;99906.09;4892391;29;20346;-86
2022/12/26 06:34:56;;;;;;;;;;;;;;;7.74;100.00;99910.44;4920102;29;19923;-86
2022/12/26 06:37:22;;;;;;;;;;;;;;;7.74;100.00;99921.84;4891166;29;19969;-85
2022/12/26 06:39:49;;;;;;;;;;;;;;;7.74;100.00;99907.78;4901921;29;20548;-86
2022/12/26 06:42:16;;;;;;;;;;;;;;;7.76;100.00;99913.78;4905943;29;19934;-85
2022/12/26 06:44:42;;;;;;;;;;;;;;;7.74;100.00;99913.91;4904906;29;20264;-86
2022/12/26 06:47:09;;;;;;;;;;;;;;;7.71;100.00;99913.28;4890199;29;19927;-86
2022/12/26 06:49:36;;;;;;;;;;;;;;;7.66;100.00;99912.78;4920568;29;20640;-86
2022/12/26 06:52:02;;;;;;;;;;;;;;;7.70;100.00;99917.72;4919510;29;20018;-86
2022/12/26 06:54:29;;;;;;;;;;;;;;;7.73;100.00;99925.44;4887982;29;19931;-86
2022/12/26 06:56:55;;;;;;;;;;;;;;;7.76;100.00;99924.34;4902465;29;20298;-86
2022/12/26 06:59:22;;;;;;;;;;;;;;;7.74;100.00;99937.72;4902633;29;19986;-85
2022/12/26 07:01:48;;;;;;;;;;;;;;;7.80;100.00;99939.03;4888350;29;20294;-86
2022/12/26 07:04:15;;;;;;;;;;;;;;;7.79;100.00;99940.84;4903133;29;19923;-86
2022/12/26 07:06:42;;;;;;;;;;;;;;;7.79;100.00;99938.19;4887032;29;19934;-85
2022/12/26 07:09:13;;;;;;;;;;;;;;;7.83;100.00;99938.81;4904311;29;21232;-86
2022/12/26 07:11:41;;;;;;;;;;;;;;;7.88;100.00;99954.31;4869901;29;19931;-86
2022/12/26 07:14:07;;;;;;;;;;;;;;;7.83;100.00;99963.44;4873708;29;20430;-86
2022/12/26 07:16:34;;;;;;;;;;;;;;;7.82;100.00;99960.91;4902407;29;20418;-86
2022/12/26 07:19:01;;;;;;;;;;;;;;;7.79;100.00;99966.44;4891005;29;19966;-86
2022/12/26 07:21:28;;;;;;;;;;;;;;;7.77;100.00;99974.47;4888415;29;19931;-85
2022/12/26 07:24:00;;;;;;;;;;;;;;;7.80;100.00;99968.13;4839337;29;19930;-85
2022/12/26 07:26:27;;;;;;;;;;;;;;;7.77;100.00;99963.91;4903107;29;19923;-85
2022/12/26 07:28:54;;;;;;;;;;;;;;;7.83;100.00;99973.16;4885890;29;20676;-85
2022/12/26 07:31:20;;;;;;;;;;;;;;;7.86;100.00;99969.44;4904928;29;19930;-85
2022/12/26 07:33:47;;;;;;;;;;;;;;;7.87;100.00;99969.34;4905051;29;19923;-84
2022/12/26 07:36:14;;;;;;;;;;;;;;;7.85;100.00;99968.63;4905252;29;19975;-85
2022/12/26 07:38:40;;;;;;;;;;;;;;;7.87;100.00;99981.72;4903126;29;20013;-85
2022/12/26 07:43:52;;;;;;;;;;;;;;;7.93;100.00;99987.38;4876315;29;20312;-85
2022/12/26 07:46:19;;;;;;;;;;;;;;;7.94;100.00;99989.09;4919188;29;20409;-85
2022/12/26 07:48:46;;;;;;;;;;;;;;;7.90;100.00;99976.22;4918665;29;20303;-85
2022/12/26 07:51:12;;;;;;;;;;;;;;;7.96;100.00;99991.59;4874557;29;19929;-85
2022/12/26 07:53:39;;;;;;;;;;;;;;;7.98;100.00;99971.19;4906520;29;19930;-85
2022/12/26 07:56:06;;;;;;;;;;;;;;;7.97;100.00;99973.00;4903262;29;19935;-85
2022/12/26 07:58:33;;;;;;;;;;;;;;;7.97;100.00;99974.78;4887636;29;19931;-85
2022/12/26 08:01:00;;;;;;;;;;;;;;;7.95;100.00;99977.53;4873061;29;20371;-85
2022/12/26 08:03:27;;;;;;;;;;;;;;;7.91;100.00;99978.75;4901637;29;19923;-85
2022/12/26 08:05:54;;;;;;;;;;;;;;;7.91;100.00;99984.03;4889611;29;19935;-86
2022/12/26 08:08:21;;;;;;;;;;;;;;;7.91;100.00;99986.69;4887697;29;19986;-86
2022/12/26 08:10:48;;;;;;;;;;;;;;;7.88;100.00;99973.66;4902442;29;19930;-85
2022/12/26 08:13:14;;;;;;;;;;;;;;;7.93;100.00;99982.09;4887736;29;20631;-86
2022/12/26 08:15:41;;;;;;;;;;;;;;;7.96;100.00;99979.25;4916159;29;20024;-86
2022/12/26 08:18:07;;;;;;;;;;;;;;;8.00;100.00;99983.31;4901464;29;19963;-86
2022/12/26 08:20:34;;;;;;;;;;;;;;;8.01;100.00;99981.53;4904768;29;19979;-87
2022/12/26 08:23:00;;;;;;;;;;;;;;;8.01;100.00;99986.81;4918436;29;19923;-87
2022/12/26 08:25:27;;;;;;;;;;;;;;;8.03;100.00;100006.88;4887897;29;19929;-87
2022/12/26 08:27:53;;;;;;;;;;;;;;;8.01;100.00;99995.59;4870340;29;19964;-87
2022/12/26 08:30:20;;;;;;;;;;;;;;;8.07;100.00;100014.63;4887383;29;19942;-87
2022/12/26 08:32:47;;;;;;;;;;;;;;;8.03;100.00;100008.69;4891308;29;19926;-88
2022/12/26 08:35:13;;;;;;;;;;;;;;;8.08;100.00;100011.84;4871895;29;19923;-87
2022/12/26 08:37:40;;;;;;;;;;;;;;;8.09;100.00;100007.38;4903318;29;20306;-87
2022/12/26 08:40:07;;;;;;;;;;;;;;;8.10;100.00;100001.16;4902737;29;19931;-88
2022/12/26 08:42:33;;;;;;;;;;;;;;;8.12;100.00;100009.81;4918613;28;19923;-86
2022/12/26 08:45:16;;;;;;;;;;;;;;;8.15;100.00;100010.44;4897363;29;19923;-88
2022/12/26 08:47:42;;;;;;;;;;;;;;;8.16;100.00;100025.31;4917679;29;19937;-85
2022/12/26 08:50:09;;;;;;;;;;;;;;;8.19;100.00;100042.75;4886353;29;20010;-87
2022/12/26 08:52:36;;;;;;;;;;;;;;;8.20;100.00;100049.75;4918154;29;19929;-86
2022/12/26 08:55:02;;;;;;;;;;;;;;;8.16;100.00;100053.59;4900788;29;20342;-86
2022/12/26 08:57:29;;;;;;;;;;;;;;;8.15;100.00;100062.50;4884265;29;20442;-85
2022/12/26 08:59:55;;;;;;;;;;;;;;;8.17;100.00;100052.66;4871762;29;19927;-86
2022/12/26 09:02:22;;;;;;;;;;;;;;;8.19;100.00;100056.00;4887179;29;20730;-86
2022/12/26 09:04:49;;;;;;;;;;;;;;;8.22;100.00;100061.91;4871673;29;20263;-86
2022/12/26 09:07:15;;;;;;;;;;;;;;;8.24;100.00;100054.72;4888019;29;19923;-85
2022/12/26 09:09:43;;;;;;;;;;;;;;;8.28;100.00;100055.31;4886185;29;19931;-85
2022/12/26 09:12:09;;;;;;;;;;;;;;;8.32;100.00;100055.91;4902665;29;19998;-87
2022/12/26 09:14:36;;;;;;;;;;;;;;;8.38;100.00;100063.41;4856835;29;19993;-87
2022/12/26 09:17:03;;;;;;;;;;;;;;;8.45;100.00;100054.91;4916476;29;20274;-86
2022/12/26 09:19:31;;;;;;;;;;;;;;;8.47;100.00;100052.13;4885792;29;20276;-85
2022/12/26 09:24:42;;;;;;;;;;;;;;;8.57;100.00;100063.69;4872887;29;19927;-85
2022/12/26 09:27:09;;;;;;;;;;;;;;;8.61;100.00;100061.69;4886938;29;19978;-85
2022/12/26 09:29:39;;;;;;;;;;;;;;;8.64;100.00;100062.28;4914808;29;20026;-87
2022/12/26 09:32:06;;;;;;;;;;;;;;;8.71;100.00;100059.19;4868030;29;19930;-87
2022/12/26 09:34:33;;;;;;;;;;;;;;;8.74;100.00;100065.06;4876892;29;19927;-88
2022/12/26 09:37:00;;;;;;;;;;;;;;;8.76;100.00;100068.44;4873019;29;19989;-88
2022/12/26 09:39:26;;;;;;;;;;;;;;;8.80;100.00;100063.75;4917994;28;19931;-87
2022/12/26 09:41:58;;;;;;;;;;;;;;;8.83;100.00;100056.41;4900000;29;19931;-88
2022/12/26 09:44:43;;;;;;;;;;;;;;;8.85;100.00;100066.88;4916751;28;20302;-87
2022/12/26 09:47:13;;;;;;;;;;;;;;;8.87;100.00;100054.38;4855683;29;19927;-85
2022/12/26 09:49:44;;;;;;;;;;;;;;;8.89;100.00;100044.50;4907028;29;20013;-84
2022/12/26 09:52:12;;;;;;;;;;;;;;;8.91;100.00;100047.88;4869362;29;20029;-87
2022/12/26 09:54:43;;;;;;;;;;;;;;;8.91;100.00;100048.72;4894583;29;19931;-84
2022/12/26 09:57:15;;;;;;;;;;;;;;;8.94;100.00;100070.63;4900317;29;19923;-84
2022/12/26 09:59:45;;;;;;;;;;;;;;;8.96;100.00;100080.16;4880931;29;20335;-85
2022/12/26 10:02:15;;;;;;;;;;;;;;;8.96;100.00;100076.66;4899564;29;19931;-84
2022/12/26 10:04:42;;;;;;;;;;;;;;;8.97;100.00;100091.56;4887396;29;21530;-84
2022/12/26 10:07:21;;;;;;;;;;;;;;;8.97;100.00;100095.06;4889906;29;19979;-83
2022/12/26 10:09:47;;;;;;;;;;;;;;;8.98;100.00;100102.06;4890384;29;19931;-83
2022/12/26 10:12:20;;;;;;;;;;;;;;;8.99;100.00;100097.59;4907818;29;20056;-86
2022/12/26 10:14:54;;;;;;;;;;;;;;;8.99;100.00;100118.78;4873671;29;20339;-86
2022/12/26 10:17:40;;;;;;;;;;;;;;;9.00;100.00;100116.00;4875599;29;20276;-86
2022/12/26 10:20:25;;;;;;;;;;;;;;;9.00;100.00;100105.41;4861217;29;19923;-84
2022/12/26 10:23:02;;;;;;;;;;;;;;;9.01;100.00;100108.94;4877982;29;19930;-86
2022/12/26 10:25:32;;;;;;;;;;;;;;;9.01;100.00;100104.47;4872869;29;20033;-84
2022/12/26 10:27:59;;;;;;;;;;;;;;;9.02;100.00;100107.97;4920383;29;19930;-85
2022/12/26 10:30:29;;;;;;;;;;;;;;;9.04;100.00;100111.34;4889248;29;19970;-85
2022/12/26 10:32:57;;;;;;;;;;;;;;;9.05;100.00;100115.66;4904454;29;19991;-84
2022/12/26 10:35:28;;;;;;;;;;;;;;;9.05;100.00;100113.00;4889676;29;19927;-88
2022/12/26 10:37:56;;;;;;;;;;;;;;;9.07;100.00;100111.94;4888314;29;19983;-87
2022/12/26 10:40:24;;;;;;;;;;;;;;;9.07;100.00;100119.03;4885428;29;19947;-85
2022/12/26 10:42:52;;;;;;;;;;;;;;;9.07;100.00;100114.56;4920816;29;19937;-84
2022/12/26 10:45:34;;;;;;;;;;;;;;;9.09;100.00;100122.41;4904546;29;19930;-85
2022/12/26 10:48:00;;;;;;;;;;;;;;;9.09;100.00;100128.56;4873822;29;20065;-84
2022/12/26 10:50:28;;;;;;;;;;;;;;;9.11;100.00;100117.84;4903033;29;19923;-86
2022/12/26 10:52:55;;;;;;;;;;;;;;;9.12;100.00;100114.22;4895088;29;19927;-85
2022/12/26 10:55:25;;;;;;;;;;;;;;;9.13;100.00;100107.94;4876024;29;19939;-86
2022/12/26 10:57:55;;;;;;;;;;;;;;;9.14;100.00;100120.25;4900927;29;19923;-85
2022/12/26 11:00:23;;;;;;;;;;;;;;;9.15;100.00;100115.78;4875156;29;20028;-85
2022/12/26 11:03:06;;;;;;;;;;;;;;;9.16;100.00;100125.41;4889129;29;19923;-85
2022/12/26 11:05:34;;;;;;;;;;;;;;;9.17;100.00;100127.94;4889504;29;19974;-84
2022/12/26 11:08:22;;;;;;;;;;;;;;;9.17;100.00;100119.16;4876622;29;20287;-81
2022/12/26 11:11:01;;;;;;;;;;;;;;;9.16;100.00;100102.44;4872339;29;20499;-85
2022/12/26 11:13:28;;;;;;;;;;;;;;;9.18;100.00;100097.84;4888281;29;19979;-83
2022/12/26 11:15:55;;;;;;;;;;;;;;;9.20;100.00;100095.91;4891932;29;19985;-84
2022/12/26 11:18:26;;;;;;;;;;;;;;;9.21;100.00;100097.63;4901251;29;19962;-84
2022/12/26 11:20:52;;;;;;;;;;;;;;;9.24;100.00;100092.06;4891928;29;19929;-85
2022/12/26 11:23:20;;;;;;;;;;;;;;;9.24;100.00;100086.78;4919130;29;19923;-85
2022/12/26 11:25:48;;;;;;;;;;;;;;;9.25;100.00;100095.56;4888829;29;20339;-84
2022/12/26 11:28:18;;;;;;;;;;;;;;;9.26;100.00;100097.22;4885799;29;19987;-86
2022/12/26 11:30:46;;;;;;;;;;;;;;;9.27;100.00;100094.47;4887027;29;19922;-86
2022/12/26 11:33:23;;;;;;;;;;;;;;;9.27;100.00;100098.94;4900283;29;20120;-86
2022/12/26 11:35:54;;;;;;;;;;;;;;;9.27;100.00;100072.44;4873760;29;20058;-85
2022/12/26 11:38:35;;;;;;;;;;;;;;;9.27;100.00;100072.44;4901508;29;19927;-85
2022/12/26 11:44:04;;;;;;;;;;;;;;;9.27;100.00;100070.63;4875226;29;20047;-86
2022/12/26 11:46:51;;;;;;;;;;;;;;;9.28;100.00;100068.81;4889339;29;19927;-85
2022/12/26 11:49:23;;;;;;;;;;;;;;;9.28;100.00;100061.69;4870489;29;19923;-86
2022/12/26 11:51:49;;;;;;;;;;;;;;;9.31;100.00;100064.13;4886166;29;19939;-86
2022/12/26 11:54:24;;;;;;;;;;;;;;;9.32;100.00;100080.88;4867728;29;20014;-86
2022/12/26 11:57:10;;;;;;;;;;;;;;;9.32;100.00;100071.09;4905591;29;19923;-86
2022/12/26 11:59:37;;;;;;;;;;;;;;;9.33;100.00;100077.25;4906008;29;19938;-86
2022/12/26 12:02:13;;;;;;;;;;;;;;;9.34;100.00;100092.19;4882672;29;20398;-87
2022/12/26 12:04:40;;;;;;;;;;;;;;;9.34;100.00;100090.38;4860284;29;20700;-85
2022/12/26 12:07:30;;;;;;;;;;;;;;;9.37;100.00;100088.47;4873748;29;19930;-85
2022/12/26 12:10:17;;;;;;;;;;;;;;;9.37;100.00;100099.91;4869784;29;19927;-84
2022/12/26 12:12:49;;;;;;;;;;;;;;;9.39;100.00;100091.81;4909872;29;20049;-84
2022/12/26 12:15:18;;;;;;;;;;;;;;;9.38;100.00;100090.13;4903532;29;19927;-85
2022/12/26 12:17:51;;;;;;;;;;;;;;;9.38;100.00;100080.38;4890997;29;19938;-86
2022/12/26 12:20:30;;;;;;;;;;;;;;;9.40;100.00;100082.91;4905246;29;19927;-85
2022/12/26 12:23:16;;;;;;;;;;;;;;;9.40;100.00;100075.78;4896704;29;19923;-85
2022/12/26 12:25:42;;;;;;;;;;;;;;;9.42;100.00;100068.56;4885452;29;19978;-86
2022/12/26 12:28:12;;;;;;;;;;;;;;;9.41;100.00;100053.59;4910698;29;20501;-85
2022/12/26 12:30:51;;;;;;;;;;;;;;;9.40;100.00;100046.63;4887891;29;19929;-85
2022/12/26 12:33:24;;;;;;;;;;;;;;;9.41;100.00;100058.06;4874202;29;19923;-86
2022/12/26 12:35:53;;;;;;;;;;;;;;;9.42;100.00;100057.97;4863484;29;19933;-84
2022/12/26 12:38:23;;;;;;;;;;;;;;;9.44;100.00;100053.38;4884525;29;19923;-87
2022/12/26 12:40:54;;;;;;;;;;;;;;;9.45;100.00;100056.88;4905723;29;20014;-85
2022/12/26 12:43:20;;;;;;;;;;;;;;;9.44;100.00;100069.28;4886016;29;20252;-86
2022/12/26 12:45:55;;;;;;;;;;;;;;;9.45;100.00;100070.13;4901439;29;19931;-86
2022/12/26 12:48:34;;;;;;;;;;;;;;;9.46;100.00;100064.69;4845349;29;20415;-85
2022/12/26 12:51:19;;;;;;;;;;;;;;;9.47;100.00;100060.25;4914917;29;19956;-86
2022/12/26 12:53:56;;;;;;;;;;;;;;;9.47;100.00;100060.25;4886462;29;19923;-85
2022/12/26 12:56:25;;;;;;;;;;;;;;;9.51;100.00;100073.13;4893202;29;19923;-85
2022/12/26 12:58:59;;;;;;;;;;;;;;;9.47;100.00;100063.75;4818028;29;19935;-85
2022/12/26 13:01:28;;;;;;;;;;;;;;;9.47;100.00;100073.50;4812928;29;20560;-85
2022/12/26 13:03:58;;;;;;;;;;;;;;;9.46;100.00;100074.44;4840018;29;19939;-85
2022/12/26 13:06:26;;;;;;;;;;;;;;;9.46;100.00;100075.28;4844447;29;19924;-86
2022/12/26 13:08:54;;;;;;;;;;;;;;;9.48;100.00;100073.38;4830102;29;20446;-86
2022/12/26 13:11:22;;;;;;;;;;;;;;;9.48;100.00;100069.88;4827655;29;19953;-86
2022/12/26 13:13:53;;;;;;;;;;;;;;;9.48;100.00;100077.81;4795130;29;19936;-87
2022/12/26 13:16:24;;;;;;;;;;;;;;;9.46;100.00;100061.19;4817824;29;20300;-88
2022/12/26 13:19:02;;;;;;;;;;;;;;;9.46;100.00;100070.00;4828709;29;19935;-87
2022/12/26 13:21:30;;;;;;;;;;;;;;;9.48;100.00;100072.53;4806248;29;19968;-85
2022/12/26 13:26:46;;;;;;;;;;;;;;;9.46;100.00;100067.34;4841185;29;19928;-87
2022/12/26 13:29:15;;;;;;;;;;;;;;;9.50;100.00;100057.34;4824073;29;19933;-85
2022/12/26 13:31:42;;;;;;;;;;;;;;;9.50;100.00;100052.03;4915172;29;19924;-87
2022/12/26 13:34:13;;;;;;;;;;;;;;;9.50;100.00;100065.31;4917513;29;20376;-87
2022/12/26 13:36:44;;;;;;;;;;;;;;;9.50;100.00;100067.94;4875980;29;19923;-88
2022/12/26 13:39:12;;;;;;;;;;;;;;;9.49;100.00;100069.75;4897122;29;19955;-88
2022/12/26 13:44:31;;;;;;;;;;;;;;;9.48;100.00;100061.94;4876046;29;19942;-84
2022/12/26 13:46:58;;;;;;;;;;;;;;;9.49;100.00;100063.59;4887832;29;20014;-85
2022/12/26 13:49:25;;;;;;;;;;;;;;;9.49;100.00;100067.13;4902091;29;20545;-86
2022/12/26 13:51:53;;;;;;;;;;;;;;;9.49;100.00;100068.91;4904107;29;20331;-85
2022/12/26 13:54:20;;;;;;;;;;;;;;;9.50;100.00;100068.78;4869156;29;19976;-86
2022/12/26 13:56:53;;;;;;;;;;;;;;;9.49;100.00;100064.47;4905126;29;19982;-86
2022/12/26 13:59:22;;;;;;;;;;;;;;;9.50;100.00;100066.13;4889789;29;19927;-86
2022/12/26 14:02:07;;;;;;;;;;;;;;;9.53;100.00;100068.53;4913234;29;19924;-89
2022/12/26 14:04:49;;;;;;;;;;;;;;;9.51;100.00;100059.84;4891198;29;20005;-87
2022/12/26 14:07:27;;;;;;;;;;;;;;;9.49;100.00;100083.03;4873342;29;19927;-86
2022/12/26 14:09:57;;;;;;;;;;;;;;;9.48;100.00;100070.72;4901932;29;19931;-86
2022/12/26 14:12:26;;;;;;;;;;;;;;;9.48;100.00;100061.94;4912002;29;20368;-85
2022/12/26 14:14:57;;;;;;;;;;;;;;;9.47;100.00;100063.75;4899997;29;19962;-87
2022/12/26 14:17:31;;;;;;;;;;;;;;;9.49;100.00;100055.66;4889609;29;19953;-87
2022/12/26 14:20:10;;;;;;;;;;;;;;;9.48;100.00;100046.84;4890587;29;20370;-87
2022/12/26 14:22:54;;;;;;;;;;;;;;;9.48;100.00;100043.38;4915935;29;19923;-85
2022/12/26 14:25:24;;;;;;;;;;;;;;;9.49;100.00;100040.59;4904703;29;19924;-88
2022/12/26 14:27:56;;;;;;;;;;;;;;;9.49;100.00;100045.91;4913227;29;19975;-86
2022/12/26 14:30:28;;;;;;;;;;;;;;;9.51;100.00;100053.72;4902069;29;19930;-86
2022/12/26 14:32:58;;;;;;;;;;;;;;;9.50;100.00;100049.41;4905290;29;19966;-85
2022/12/26 14:35:30;;;;;;;;;;;;;;;9.51;100.00;100049.25;4904064;29;19931;-85
2022/12/26 14:37:57;;;;;;;;;;;;;;;9.51;100.00;100051.91;4904307;29;19924;-84
2022/12/26 14:40:24;;;;;;;;;;;;;;;9.51;100.00;100051.91;4895338;29;19923;-85
2022/12/26 14:43:17;;;;;;;;;;;;;;;9.50;100.00;100052.88;4903009;29;19979;-85
2022/12/26 14:45:51;;;;;;;;;;;;;;;9.51;100.00;100053.72;4881431;29;19927;-86
2022/12/26 14:48:17;;;;;;;;;;;;;;;9.52;100.00;100064.22;4871405;29;19923;-86
2022/12/26 14:50:44;;;;;;;;;;;;;;;9.51;100.00;100051.06;4903339;29;20371;-86
2022/12/26 14:53:23;;;;;;;;;;;;;;;9.52;100.00;100048.31;4901089;29;19923;-85
2022/12/26 14:55:50;;;;;;;;;;;;;;;9.53;100.00;100052.63;4890903;29;20038;-86
2022/12/26 14:58:32;;;;;;;;;;;;;;;9.54;100.00;100051.69;4898570;29;19927;-86
2022/12/26 15:01:08;;;;;;;;;;;;;;;9.54;100.00;100040.22;4867283;29;19950;-86
2022/12/26 15:03:40;;;;;;;;;;;;;;;9.55;100.00;100039.25;4899369;29;19923;-86
2022/12/26 15:06:19;;;;;;;;;;;;;;;9.55;100.00;100039.25;4902165;29;19923;-86
2022/12/26 15:08:58;;;;;;;;;;;;;;;9.55;100.00;100044.56;4889290;29;19927;-86
2022/12/26 15:11:37;;;;;;;;;;;;;;;9.54;100.00;100049.03;4906365;29;19950;-85
2022/12/26 15:14:23;;;;;;;;;;;;;;;9.55;100.00;100049.88;4886187;29;20010;-85
2022/12/26 15:17:02;;;;;;;;;;;;;;;9.55;100.00;100047.22;4856300;29;20014;-86
2022/12/26 15:19:44;;;;;;;;;;;;;;;9.55;100.00;100048.06;4903585;29;19927;-85